Time;durP1;ratioP1;P1;durP2;ratioP2;P2;SDS_P1;SDS_P2;PMS_P1;PMS_P2;Temp;Humidity;BMP_temperature;BMP_pressure;BME280_temperature;BME280_humidity;BME280_pressure;Samples;Min_cycle;Max_cycle;Signal;HPM_P1;HPM_P2
2021/08/12 00:00:52;;;;;;;19.08;12.27;;;;;;;14.47;100.00;101383.25;5006001;28;20045;-69
2021/08/12 00:03:19;;;;;;;18.52;12.82;;;;;;;14.43;100.00;101385.25;4995204;28;20045;-69
2021/08/12 00:05:47;;;;;;;21.90;13.38;;;;;;;14.44;100.00;101376.34;5010741;28;20140;-70
2021/08/12 00:08:14;;;;;;;18.33;12.55;;;;;;;14.36;100.00;101378.63;5030905;28;20085;-69
2021/08/12 00:10:41;;;;;;;18.45;12.75;;;;;;;14.29;100.00;101374.69;5037367;28;20136;-69
2021/08/12 00:13:08;;;;;;;18.42;13.73;;;;;;;14.26;100.00;101378.34;5027691;28;20056;-69
2021/08/12 00:15:35;;;;;;;18.83;13.70;;;;;;;14.21;100.00;101372.50;5013954;28;20080;-69
2021/08/12 00:18:03;;;;;;;21.85;13.63;;;;;;;14.19;100.00;101377.91;5010107;28;20073;-69
2021/08/12 00:20:30;;;;;;;18.13;14.52;;;;;;;14.19;100.00;101377.91;5029226;28;20053;-69
2021/08/12 00:22:57;;;;;;;20.77;14.30;;;;;;;14.27;100.00;101376.56;5025323;28;20072;-68
2021/08/12 00:25:25;;;;;;;17.65;14.10;;;;;;;14.20;100.00;101376.09;5028524;28;20048;-69
2021/08/12 00:27:52;;;;;;;18.98;13.52;;;;;;;14.17;100.00;101382.41;4994160;28;20060;-69
2021/08/12 00:30:19;;;;;;;19.42;14.18;;;;;;;14.15;100.00;101383.47;5027952;28;20053;-70
2021/08/12 00:32:46;;;;;;;20.30;14.68;;;;;;;14.14;100.00;101387.06;5028578;28;20119;-70
2021/08/12 00:35:14;;;;;;;20.98;14.82;;;;;;;14.11;100.00;101385.47;5029679;28;20566;-69
2021/08/12 00:37:42;;;;;;;19.20;14.13;;;;;;;14.22;100.00;101384.78;5000073;28;20049;-69
2021/08/12 00:40:09;;;;;;;18.42;14.38;;;;;;;14.26;100.00;101385.44;4989858;28;20069;-68
2021/08/12 00:42:36;;;;;;;20.30;14.50;;;;;;;14.31;100.00;101388.66;5006821;28;20091;-68
2021/08/12 00:45:04;;;;;;;19.85;14.73;;;;;;;14.19;100.00;101390.28;5009101;28;20459;-69
2021/08/12 00:47:31;;;;;;;18.88;14.02;;;;;;;14.10;100.00;101389.06;5007953;28;20053;-67
2021/08/12 00:49:58;;;;;;;19.00;13.35;;;;;;;14.05;100.00;101384.97;5031534;28;20132;-68
2021/08/12 00:52:25;;;;;;;17.20;14.45;;;;;;;14.05;100.00;101391.13;5008470;28;20140;-70
2021/08/12 00:54:54;;;;;;;18.17;14.50;;;;;;;14.02;100.00;101388.66;5010754;28;20100;-69
2021/08/12 00:57:21;;;;;;;21.10;15.23;;;;;;;13.99;100.00;101383.56;5001332;28;20037;-69
2021/08/12 00:59:48;;;;;;;18.00;15.07;;;;;;;13.92;100.00;101385.75;5008444;28;20105;-68
2021/08/12 01:02:15;;;;;;;19.88;14.70;;;;;;;13.87;100.00;101382.53;5015747;28;20136;-68
2021/08/12 01:04:46;;;;;;;20.77;14.90;;;;;;;13.87;100.00;101385.16;5007888;28;20124;-70
2021/08/12 01:07:25;;;;;;;20.95;15.15;;;;;;;13.87;100.00;101382.53;5023484;28;20055;-69
2021/08/12 01:10:13;;;;;;;19.88;14.90;;;;;;;13.87;100.00;101384.31;5029693;28;20049;-68
2021/08/12 01:12:50;;;;;;;24.73;16.35;;;;;;;13.86;100.00;101387.88;5028529;28;20447;-70
2021/08/12 01:15:27;;;;;;;19.20;15.05;;;;;;;13.98;100.00;101388.94;5007288;28;20586;-68
2021/08/12 01:18:00;;;;;;;16.70;14.88;;;;;;;13.87;100.00;101382.53;5029718;28;20107;-69
2021/08/12 01:20:40;;;;;;;20.55;15.55;;;;;;;13.83;100.00;101380.16;4996237;28;20474;-68
2021/08/12 01:23:11;;;;;;;19.67;15.23;;;;;;;13.78;100.00;101388.38;5008770;28;20053;-70
2021/08/12 01:25:39;;;;;;;25.45;16.13;;;;;;;13.79;100.00;101378.63;4979346;28;20559;-69
2021/08/12 01:28:16;;;;;;;20.15;15.50;;;;;;;13.78;100.00;101380.44;5016505;28;20111;-70
2021/08/12 01:30:57;;;;;;;21.63;15.07;;;;;;;13.76;100.00;101378.81;5029232;28;20049;-71
2021/08/12 01:33:30;;;;;;;21.02;15.25;;;;;;;13.74;100.00;101381.56;5014065;28;20475;-69
2021/08/12 01:35:59;;;;;;;21.42;14.65;;;;;;;13.85;100.00;101376.44;5026009;28;20077;-70
2021/08/12 01:38:27;;;;;;;19.80;14.77;;;;;;;13.89;100.00;101385.06;5008421;28;20133;-69
2021/08/12 01:40:56;;;;;;;17.30;13.73;;;;;;;13.94;100.00;101385.63;4998377;28;20099;-69
2021/08/12 01:43:24;;;;;;;18.52;15.15;;;;;;;13.82;100.00;101381.06;5011805;28;20051;-68
2021/08/12 01:45:53;;;;;;;21.23;14.55;;;;;;;13.82;100.00;101389.88;4993165;28;20133;-70
2021/08/12 01:48:22;;;;;;;19.42;16.50;;;;;;;13.72;100.00;101380.78;5006482;28;20111;-69
2021/08/12 01:50:51;;;;;;;19.65;15.55;;;;;;;13.69;100.00;101381.00;4993871;28;20051;-68
2021/08/12 01:53:22;;;;;;;20.45;15.00;;;;;;;13.65;100.00;101382.09;5007573;28;20140;-70
2021/08/12 01:55:51;;;;;;;18.95;14.85;;;;;;;13.61;100.00;101385.88;4987947;28;20128;-67
2021/08/12 01:58:21;;;;;;;19.20;15.43;;;;;;;13.56;100.00;101380.84;4974031;28;20057;-69
2021/08/12 02:00:49;;;;;;;19.02;15.02;;;;;;;13.53;100.00;101375.75;5013774;28;20124;-69
2021/08/12 02:03:17;;;;;;;22.30;16.25;;;;;;;13.50;100.00;101378.56;5011493;28;20049;-69
2021/08/12 02:05:47;;;;;;;16.65;14.93;;;;;;;13.49;100.00;101374.22;5001105;28;20073;-69
2021/08/12 02:08:17;;;;;;;21.90;15.90;;;;;;;13.48;100.00;101377.81;5028403;28;20132;-68
2021/08/12 02:10:45;;;;;;;19.40;14.98;;;;;;;13.55;100.00;101378.28;5013851;28;20041;-68
2021/08/12 02:13:12;;;;;;;17.05;15.25;;;;;;;13.51;100.00;101380.28;5026691;28;20049;-69
2021/08/12 02:15:39;;;;;;;17.63;15.45;;;;;;;13.51;100.00;101375.00;5010998;28;20124;-69
2021/08/12 02:18:07;;;;;;;17.30;14.95;;;;;;;13.47;100.00;101383.19;5025505;28;20050;-67
2021/08/12 02:20:50;;;;;;;21.63;15.57;;;;;;;13.45;100.00;101383.28;5039893;28;20050;-69
2021/08/12 02:23:27;;;;;;;18.52;15.32;;;;;;;13.54;100.00;101381.88;4996875;28;20057;-69
2021/08/12 02:25:58;;;;;;;25.50;15.45;;;;;;;13.59;100.00;101382.47;5011511;28;20045;-68
2021/08/12 02:28:30;;;;;;;20.92;15.75;;;;;;;13.50;100.00;101381.19;4997112;28;20467;-68
2021/08/12 02:30:58;;;;;;;16.88;15.07;;;;;;;13.43;100.00;101372.78;4996724;28;20076;-69
2021/08/12 02:33:28;;;;;;;25.30;16.05;;;;;;;13.39;100.00;101381.00;5011657;28;20092;-68
2021/08/12 02:35:56;;;;;;;20.15;16.67;;;;;;;13.40;100.00;101380.06;5018036;28;20049;-68
2021/08/12 02:38:24;;;;;;;21.05;15.68;;;;;;;13.37;100.00;101375.81;5028794;28;20136;-68
2021/08/12 02:40:53;;;;;;;21.73;15.65;;;;;;;13.35;100.00;101374.19;5027915;28;20512;-69
2021/08/12 02:43:21;;;;;;;22.73;17.73;;;;;;;13.35;100.00;101377.69;4992495;28;20144;-68
2021/08/12 02:45:49;;;;;;;20.75;15.85;;;;;;;13.35;100.00;101377.69;5014033;28;20220;-71
2021/08/12 02:48:17;;;;;;;23.52;16.15;;;;;;;13.43;100.00;101367.50;5027216;28;20053;-68
2021/08/12 02:50:45;;;;;;;19.25;15.75;;;;;;;13.41;100.00;101366.72;5013844;28;20136;-68
2021/08/12 02:53:12;;;;;;;18.52;15.40;;;;;;;13.47;100.00;101369.97;5009163;28;20140;-68
2021/08/12 02:55:40;;;;;;;19.55;15.30;;;;;;;13.60;100.00;101363.88;4995519;28;20129;-69
2021/08/12 02:58:07;;;;;;;18.67;16.40;;;;;;;13.54;100.00;101366.00;5010746;28;20045;-69
2021/08/12 03:00:35;;;;;;;21.50;17.40;;;;;;;13.42;100.00;101365.81;5034253;28;20125;-69
2021/08/12 03:03:03;;;;;;;17.92;15.82;;;;;;;13.34;100.00;101369.84;4975623;28;20041;-69
2021/08/12 03:05:32;;;;;;;19.27;16.92;;;;;;;13.28;100.00;101370.19;5003791;28;20046;-69
2021/08/12 03:08:01;;;;;;;18.90;16.55;;;;;;;13.22;100.00;101373.16;4995126;28;20048;-68
2021/08/12 03:10:29;;;;;;;24.30;17.05;;;;;;;13.18;100.00;101373.31;5033639;28;20053;-68
2021/08/12 03:12:59;;;;;;;20.20;17.00;;;;;;;13.17;100.00;101376.06;5013260;28;20139;-68
2021/08/12 03:15:27;;;;;;;22.27;17.60;;;;;;;13.12;100.00;101378.97;4997178;28;20057;-68
2021/08/12 03:17:55;;;;;;;20.75;17.23;;;;;;;13.10;100.00;101377.34;5010007;28;20057;-68
2021/08/12 03:20:27;;;;;;;24.98;17.60;;;;;;;13.15;100.00;101377.97;5016887;28;20124;-67
2021/08/12 03:22:55;;;;;;;24.88;17.35;;;;;;;13.10;100.00;101383.53;5029244;28;20577;-69
2021/08/12 03:25:23;;;;;;;20.88;17.20;;;;;;;13.11;100.00;101379.94;5017542;28;20050;-68
2021/08/12 03:27:50;;;;;;;23.95;18.83;;;;;;;13.12;100.00;101384.25;5016452;28;20132;-68
2021/08/12 03:30:18;;;;;;;24.17;18.05;;;;;;;13.25;100.00;101386.25;5008023;28;20053;-69
2021/08/12 03:32:45;;;;;;;23.35;18.38;;;;;;;13.22;100.00;101387.25;5016886;28;20132;-67
2021/08/12 03:35:13;;;;;;;22.10;16.83;;;;;;;13.29;100.00;101388.63;5038963;28;20128;-68
2021/08/12 03:37:40;;;;;;;25.33;21.55;;;;;;;13.32;100.00;101392.88;5031215;28;20516;-67
2021/08/12 03:40:08;;;;;;;21.73;17.83;;;;;;;13.46;100.00;101395.53;4989399;28;20111;-69
2021/08/12 03:42:35;;;;;;;23.77;17.10;;;;;;;13.38;100.00;101406.59;5014713;28;20063;-69
2021/08/12 03:45:04;;;;;;;21.38;17.95;;;;;;;13.30;100.00;101405.34;5040758;28;20046;-69
2021/08/12 03:47:31;;;;;;;22.67;17.17;;;;;;;13.34;100.00;101402.44;4993174;28;21073;-69
2021/08/12 03:49:59;;;;;;;18.70;16.58;;;;;;;13.33;100.00;101410.47;4997510;28;20128;-68
2021/08/12 03:52:26;;;;;;;20.60;17.02;;;;;;;13.39;100.00;101412.75;5028668;28;20172;-69
2021/08/12 03:54:53;;;;;;;21.75;16.25;;;;;;;13.38;100.00;101411.03;5005193;28;20132;-67
2021/08/12 03:57:20;;;;;;;21.52;17.63;;;;;;;13.35;100.00;101414.69;5025001;28;20072;-69
2021/08/12 03:59:47;;;;;;;21.23;17.75;;;;;;;13.38;100.00;101408.41;5028543;28;20052;-69
2021/08/12 04:02:15;;;;;;;24.63;18.38;;;;;;;13.69;100.00;101404.81;5018441;28;20050;-69
2021/08/12 04:04:42;;;;;;;25.33;16.23;;;;;;;13.84;100.00;101400.38;5016619;28;20047;-69
2021/08/12 04:07:09;;;;;;;22.90;17.55;;;;;;;13.76;100.00;101402.63;5011099;28;20042;-71
2021/08/12 04:09:36;;;;;;;19.50;17.15;;;;;;;13.73;100.00;101405.44;5020542;28;20128;-68
2021/08/12 04:12:04;;;;;;;19.77;17.15;;;;;;;13.72;100.00;101396.66;4997894;28;20120;-70
2021/08/12 04:14:31;;;;;;;20.75;16.95;;;;;;;13.73;100.00;101395.72;5014974;28;20111;-69
2021/08/12 04:16:58;;;;;;;19.10;16.50;;;;;;;13.78;100.00;101408.66;5029857;28;20046;-71
2021/08/12 04:19:26;;;;;;;20.20;15.80;;;;;;;13.90;100.00;101407.94;5029425;28;20589;-69
2021/08/12 04:21:53;;;;;;;19.60;15.23;;;;;;;14.08;100.00;101409.47;5010398;28;20054;-68
2021/08/12 04:24:20;;;;;;;15.23;13.50;;;;;;;14.34;100.00;101410.50;5007137;28;20463;-68
2021/08/12 04:26:47;;;;;;;18.63;15.10;;;;;;;14.30;100.00;101409.00;5010182;28;20435;-68
2021/08/12 04:29:15;;;;;;;21.77;14.88;;;;;;;14.34;100.00;101414.97;5010337;28;20053;-71
2021/08/12 04:31:42;;;;;;;19.98;14.73;;;;;;;14.54;100.00;101424.34;5008531;28;20833;-70
2021/08/12 04:34:11;;;;;;;20.95;15.90;;;;;;;14.67;100.00;101417.31;5011560;28;20045;-71
2021/08/12 04:36:39;;;;;;;21.17;14.05;;;;;;;14.76;100.00;101418.53;5005554;28;20752;-71
2021/08/12 04:39:06;;;;;;;18.17;13.40;;;;;;;15.01;100.00;101423.97;5010215;28;20427;-69
2021/08/12 04:41:33;;;;;;;16.80;12.65;;;;;;;15.16;100.00;101419.47;4993509;28;20042;-71
2021/08/12 04:44:00;;;;;;;15.10;12.40;;;;;;;15.45;100.00;101417.56;5031334;28;20136;-70
2021/08/12 04:46:28;;;;;;;18.08;12.38;;;;;;;16.12;100.00;101420.06;5005244;28;20124;-71
2021/08/12 04:48:55;;;;;;;15.55;11.90;;;;;;;17.38;99.15;101414.53;5005565;28;20046;-70
2021/08/12 04:51:22;;;;;;;13.40;10.45;;;;;;;19.13;89.32;101423.88;5008066;28;20480;-71
2021/08/12 04:53:49;;;;;;;16.05;10.23;;;;;;;20.68;76.40;101424.91;5023814;23;20045;-79
2021/08/12 04:56:17;;;;;;;12.70;8.85;;;;;;;22.54;71.26;101421.09;4992173;28;20133;-78
2021/08/12 04:58:44;;;;;;;11.82;8.45;;;;;;;24.13;62.39;101414.03;5010227;28;20025;-79
2021/08/12 05:01:11;;;;;;;12.55;9.02;;;;;;;25.23;56.12;101415.81;5021360;28;20073;-78
2021/08/12 05:03:39;;;;;;;11.95;8.95;;;;;;;25.91;54.31;101411.94;5011279;28;20057;-80
2021/08/12 05:06:10;;;;;;;15.18;9.05;;;;;;;26.34;51.73;101415.19;5013560;28;20171;-80
2021/08/12 05:08:37;;;;;;;11.82;8.40;;;;;;;26.90;49.65;101415.97;5011674;28;20128;-80
2021/08/12 05:11:08;;;;;;;15.35;8.93;;;;;;;27.12;47.78;101425.16;5003520;28;20048;-79
2021/08/12 05:13:35;;;;;;;18.40;10.48;;;;;;;27.47;46.97;101434.53;5029006;28;20148;-79
2021/08/12 05:16:03;;;;;;;15.35;9.55;;;;;;;27.69;46.64;101423.84;5002091;28;20073;-81
2021/08/12 05:18:30;;;;;;;10.13;8.35;;;;;;;28.29;45.04;101425.63;5041202;28;20091;-79
2021/08/12 05:20:58;;;;;;;12.02;8.93;;;;;;;28.93;43.46;101424.97;5040855;28;20053;-79
2021/08/12 05:23:26;;;;;;;14.40;10.68;;;;;;;29.16;42.73;101417.53;4990775;28;20152;-78
2021/08/12 05:25:54;;;;;;;11.20;7.68;;;;;;;29.15;42.69;101428.59;5030246;28;20037;-80
2021/08/12 05:28:22;;;;;;;9.88;7.95;;;;;;;29.81;40.95;101425.63;5011860;28;20108;-81
2021/08/12 05:30:49;;;;;;;10.50;7.95;;;;;;;29.61;41.52;101429.03;5015992;28;20061;-79
2021/08/12 05:33:16;;;;;;;14.45;10.32;;;;;;;29.29;41.63;101422.25;4994826;28;20141;-79
2021/08/12 05:35:44;;;;;;;10.73;9.18;;;;;;;29.00;42.40;101424.06;5014430;28;20050;-79
2021/08/12 05:38:13;;;;;;;13.68;9.30;;;;;;;28.22;43.59;101420.09;5014749;28;20132;-79
2021/08/12 05:40:40;;;;;;;10.38;9.05;;;;;;;29.31;41.43;101424.75;5009708;28;20161;-79
2021/08/12 05:43:08;;;;;;;14.73;9.45;;;;;;;29.74;40.80;101440.00;5014453;28;20053;-80
2021/08/12 05:45:36;;;;;;;12.93;8.90;;;;;;;29.20;41.16;101432.38;5024749;28;20077;-76
2021/08/12 05:48:04;;;;;;;13.93;9.70;;;;;;;29.41;40.19;101433.44;5046470;28;20042;-79
2021/08/12 05:50:32;;;;;;;14.00;9.05;;;;;;;29.65;39.57;101432.19;5027111;28;20128;-76
2021/08/12 05:52:59;;;;;;;12.55;8.57;;;;;;;30.77;38.69;101432.09;5039355;28;20045;-79
2021/08/12 05:55:26;;;;;;;13.07;9.18;;;;;;;30.70;37.42;101429.28;5042378;28;20053;-77
2021/08/12 05:57:53;;;;;;;14.70;9.15;;;;;;;30.72;37.48;101434.56;5045673;28;20033;-76
2021/08/12 06:00:21;;;;;;;16.55;9.40;;;;;;;31.57;36.13;101435.81;5013837;28;20042;-78
2021/08/12 06:02:49;;;;;;;15.30;8.82;;;;;;;32.87;33.58;101431.31;5019111;28;20309;-78
2021/08/12 06:05:17;;;;;;;16.05;8.85;;;;;;;33.88;31.38;101429.56;5012753;28;20057;-80
2021/08/12 06:07:45;;;;;;;12.93;9.20;;;;;;;34.51;30.17;101426.59;5018308;28;20669;-78
2021/08/12 06:10:14;;;;;;;12.88;9.02;;;;;;;34.31;30.12;101428.69;5015441;28;20599;-79
2021/08/12 06:12:50;;;;;;;17.25;10.18;;;;;;;34.77;29.64;101433.63;5014772;28;20478;-80
2021/08/12 06:15:20;;;;;;;13.90;8.60;;;;;;;34.82;29.69;101430.19;5034674;28;20049;-78
2021/08/12 06:17:48;;;;;;;13.55;8.98;;;;;;;33.51;30.63;101437.69;5024335;28;20056;-79
2021/08/12 06:20:20;;;;;;;16.38;9.07;;;;;;;32.79;32.15;101433.47;5031881;28;20052;-77
2021/08/12 06:22:49;;;;;;;10.73;7.97;;;;;;;33.13;31.86;101429.50;5049797;28;20065;-77
2021/08/12 06:25:43;;;;;;;9.63;7.93;;;;;;;31.68;33.61;101439.78;5030139;28;20041;-77
2021/08/12 06:28:11;;;;;;;12.07;9.05;;;;;;;33.04;31.73;101439.00;5012787;28;20050;-78
2021/08/12 06:30:38;;;;;;;15.93;7.95;;;;;;;33.63;30.57;101435.03;5009936;28;20120;-81
2021/08/12 06:33:06;;;;;;;18.63;9.13;;;;;;;34.03;29.99;101441.00;5034126;28;20136;-80
2021/08/12 06:35:35;;;;;;;10.25;9.20;;;;;;;33.22;31.26;101439.09;5034898;28;20045;-81
2021/08/12 06:38:04;;;;;;;10.18;8.95;;;;;;;33.67;31.56;101444.44;4998559;28;20513;-81
2021/08/12 06:40:31;;;;;;;12.90;9.05;;;;;;;34.98;29.44;101440.50;5022050;28;20038;-79
2021/08/12 06:42:58;;;;;;;11.48;8.75;;;;;;;34.43;30.08;101443.28;5029997;28;20121;-79
2021/08/12 06:45:26;;;;;;;9.73;8.30;;;;;;;34.51;30.39;101452.03;5037294;28;20050;-78
2021/08/12 06:47:54;;;;;;;9.35;8.45;;;;;;;34.26;30.14;101460.28;5014938;28;20053;-81
2021/08/12 06:50:22;;;;;;;13.05;8.15;;;;;;;33.59;30.46;101456.47;5019636;28;20069;-79
2021/08/12 06:52:50;;;;;;;14.43;8.43;;;;;;;34.20;30.09;101461.19;5035296;28;20072;-80
2021/08/12 06:55:18;;;;;;;9.90;8.27;;;;;;;33.93;30.23;101462.50;5038822;28;20221;-80
2021/08/12 06:57:45;;;;;;;12.57;8.45;;;;;;;33.90;30.20;101460.22;5017342;28;20051;-78
2021/08/12 07:00:13;;;;;;;12.25;7.55;;;;;;;33.99;30.31;101464.34;5033387;28;20080;-81
2021/08/12 07:02:40;;;;;;;11.82;7.70;;;;;;;33.99;30.19;101462.44;5036331;28;20049;-80
2021/08/12 07:05:08;;;;;;;11.10;7.47;;;;;;;33.50;30.96;101455.09;5001212;28;20071;-79
2021/08/12 07:07:36;;;;;;;14.70;8.05;;;;;;;33.35;31.51;101457.28;5016374;28;20053;-81
2021/08/12 07:10:05;;;;;;;10.20;7.45;;;;;;;33.59;30.54;101461.09;5003414;28;20072;-81
2021/08/12 07:12:32;;;;;;;15.63;8.18;;;;;;;33.83;30.32;101468.47;5015530;28;20081;-80
2021/08/12 07:14:59;;;;;;;7.45;6.55;;;;;;;34.13;29.30;101470.53;5039602;28;20045;-79
2021/08/12 07:17:28;;;;;;;17.40;6.68;;;;;;;34.29;29.30;101460.91;4998971;28;20068;-79
2021/08/12 07:19:56;;;;;;;11.23;5.93;;;;;;;34.73;27.91;101468.81;5004287;28;20583;-81
2021/08/12 07:22:23;;;;;;;9.85;6.10;;;;;;;34.43;27.66;101465.97;5044356;28;20299;-77
2021/08/12 07:24:51;;;;;;;6.20;4.90;;;;;;;35.31;26.66;101466.56;5055793;28;20045;-77
2021/08/12 07:27:18;;;;;;;7.72;4.95;;;;;;;36.12;25.52;101465.84;5017129;28;20061;-81
2021/08/12 07:29:45;;;;;;;9.27;4.50;;;;;;;35.14;26.00;101477.34;5025152;28;20056;-79
2021/08/12 07:32:12;;;;;;;6.72;5.25;;;;;;;35.11;26.88;101470.41;5009470;28;20077;-78
2021/08/12 07:34:40;;;;;;;9.35;4.40;;;;;;;35.06;26.87;101475.75;5028391;23;20126;-72
2021/08/12 07:37:07;;;;;;;6.25;4.45;;;;;;;35.18;26.80;101475.81;4979955;28;20073;-73
2021/08/12 07:39:34;;;;;;;3.85;3.45;;;;;;;34.81;26.54;101472.28;5003262;28;20078;-71
2021/08/12 07:42:02;;;;;;;9.35;3.90;;;;;;;33.54;27.80;101464.50;4994444;28;20049;-71
2021/08/12 07:44:29;;;;;;;8.13;4.70;;;;;;;35.07;25.91;101462.91;4970244;28;20074;-71
2021/08/12 07:46:57;;;;;;;6.80;4.15;;;;;;;35.73;25.12;101465.47;5002028;28;20050;-71
2021/08/12 07:49:25;;;;;;;6.85;3.92;;;;;;;35.99;24.85;101471.59;5040479;22;20071;-76
2021/08/12 07:51:52;;;;;;;6.35;3.80;;;;;;;36.14;24.26;101474.66;4990409;28;20059;-76
2021/08/12 07:54:19;;;;;;;4.75;3.78;;;;;;;36.15;24.27;101468.09;5009106;28;20059;-76
2021/08/12 07:56:48;;;;;;;7.03;4.28;;;;;;;35.36;24.66;101469.44;5006964;28;20602;-76
2021/08/12 07:59:15;;;;;;;4.43;3.40;;;;;;;35.69;24.58;101461.53;5031563;28;20096;-77
2021/08/12 08:01:43;;;;;;;9.88;3.58;;;;;;;35.33;24.41;101467.16;5014115;28;20045;-76
2021/08/12 08:04:10;;;;;;;4.93;3.20;;;;;;;35.38;24.13;101467.28;5030419;28;20053;-76
2021/08/12 08:06:37;;;;;;;5.13;3.83;;;;;;;35.57;24.42;101459.84;5010993;28;20092;-77
2021/08/12 08:09:05;;;;;;;5.85;3.25;;;;;;;36.10;24.09;101454.28;5017945;28;20554;-77
2021/08/12 08:11:32;;;;;;;5.22;4.30;;;;;;;35.45;24.33;101454.34;5011265;28;20056;-76
2021/08/12 08:13:59;;;;;;;4.28;3.00;;;;;;;36.05;23.72;101456.09;5027350;28;20463;-77
2021/08/12 08:16:28;;;;;;;4.68;3.28;;;;;;;36.48;23.62;101462.00;5030332;28;20081;-77
2021/08/12 08:18:55;;;;;;;6.40;3.58;;;;;;;37.23;22.13;101457.41;5023832;28;20061;-78
2021/08/12 08:21:22;;;;;;;8.40;4.05;;;;;;;36.64;22.45;101454.91;5011304;28;20624;-77
2021/08/12 08:23:49;;;;;;;6.22;3.75;;;;;;;38.74;20.66;101459.97;5008811;28;20136;-76
2021/08/12 08:26:17;;;;;;;6.13;3.58;;;;;;;36.61;23.51;101458.16;5026625;28;20500;-77
2021/08/12 08:28:44;;;;;;;7.32;4.10;;;;;;;36.03;24.62;101459.06;5023092;28;20880;-76
2021/08/12 08:31:11;;;;;;;7.80;4.45;;;;;;;36.26;23.87;101452.72;5012776;28;20102;-76
2021/08/12 08:33:39;;;;;;;6.30;3.83;;;;;;;35.98;24.20;101453.44;5023008;28;20145;-77
2021/08/12 08:36:06;;;;;;;13.18;4.15;;;;;;;35.49;24.65;101445.44;5011494;28;20508;-76
2021/08/12 08:38:33;;;;;;;6.43;4.07;;;;;;;35.45;24.51;101441.47;5010281;28;20045;-76
2021/08/12 08:41:03;;;;;;;8.00;4.38;;;;;;;34.04;27.05;101439.91;5012013;28;20096;-76
2021/08/12 08:43:32;;;;;;;6.88;3.60;;;;;;;31.63;30.30;101445.03;5007342;28;20049;-77
2021/08/12 08:45:59;;;;;;;10.27;3.85;;;;;;;30.27;33.18;101448.53;5014442;28;20084;-76
2021/08/12 08:48:27;;;;;;;7.20;3.60;;;;;;;29.35;33.49;101445.03;5010255;28;20053;-76
2021/08/12 08:50:58;;;;;;;17.65;3.92;;;;;;;29.07;33.92;101445.81;5009822;28;20392;-77
2021/08/12 08:53:26;;;;;;;7.50;3.63;;;;;;;28.19;36.16;101455.69;5021084;28;20136;-77
2021/08/12 08:55:53;;;;;;;12.27;3.72;;;;;;;28.13;36.88;101448.28;5010504;28;20133;-77
2021/08/12 08:58:21;;;;;;;7.50;3.83;;;;;;;28.05;36.69;101445.66;5007944;28;20588;-76
2021/08/12 09:00:48;;;;;;;10.65;3.65;;;;;;;27.74;37.69;101449.38;5028875;28;20076;-78
2021/08/12 09:03:15;;;;;;;7.55;3.28;;;;;;;27.32;38.24;101454.41;5010937;28;20061;-77
2021/08/12 09:05:43;;;;;;;4.78;3.40;;;;;;;27.27;38.17;101450.38;5040454;28;20069;-76
2021/08/12 09:08:10;;;;;;;5.18;3.08;;;;;;;26.98;38.20;101453.75;5016175;28;20133;-76
2021/08/12 09:10:38;;;;;;;4.97;2.85;;;;;;;26.40;39.18;101444.19;4996826;28;20049;-76
2021/08/12 09:13:07;;;;;;;3.83;3.03;;;;;;;26.56;39.15;101445.16;5026614;28;20049;-77
2021/08/12 09:15:39;;;;;;;3.85;2.90;;;;;;;26.62;38.78;101444.50;5010219;28;20155;-76
2021/08/12 09:18:27;;;;;;;5.07;3.53;;;;;;;26.29;39.10;101441.84;5007339;28;20041;-76
2021/08/12 09:20:57;;;;;;;7.93;3.30;;;;;;;26.27;38.91;101441.19;5010163;28;20331;-77
2021/08/12 09:23:29;;;;;;;5.80;3.05;;;;;;;25.75;39.41;101445.13;4977688;28;20491;-77
2021/08/12 09:25:57;;;;;;;3.90;3.20;;;;;;;26.18;39.88;101451.19;5009920;28;20089;-76
2021/08/12 09:28:31;;;;;;;7.43;3.20;;;;;;;26.94;37.91;101438.91;5019308;28;20045;-77
2021/08/12 09:30:58;;;;;;;5.93;2.78;;;;;;;27.03;36.32;101453.22;5004038;28;20096;-77
2021/08/12 09:33:27;;;;;;;5.88;3.00;;;;;;;26.75;37.54;101444.75;5007397;28;20048;-76
2021/08/12 09:35:55;;;;;;;6.82;2.78;;;;;;;26.25;38.62;101441.38;5012435;28;20563;-77
2021/08/12 09:38:23;;;;;;;6.93;3.47;;;;;;;26.48;39.25;101436.09;5005964;28;20181;-76
2021/08/12 09:40:52;;;;;;;6.03;2.85;;;;;;;26.57;37.31;101438.75;4995697;28;20076;-74
2021/08/12 09:43:20;;;;;;;3.72;2.47;;;;;;;27.14;36.91;101444.72;5007655;28;20092;-75
2021/08/12 09:45:48;;;;;;;6.68;2.72;;;;;;;27.16;36.84;101450.81;4992388;28;20072;-77
2021/08/12 09:48:18;;;;;;;3.92;2.95;;;;;;;27.44;36.85;101443.00;5005383;28;20043;-76
2021/08/12 09:51:06;;;;;;;6.00;2.85;;;;;;;27.31;36.42;101441.91;5042566;28;20060;-76
2021/08/12 09:53:34;;;;;;;4.97;2.80;;;;;;;27.44;36.91;101442.16;4995831;28;20081;-78
2021/08/12 09:56:10;;;;;;;8.32;3.38;;;;;;;27.23;37.42;101443.63;5008697;28;20053;-77
2021/08/12 09:58:38;;;;;;;4.57;2.90;;;;;;;27.09;37.52;101440.88;5008344;28;20099;-76
2021/08/12 10:01:20;;;;;;;4.30;2.85;;;;;;;26.94;37.45;101448.88;5024498;28;20134;-76
2021/08/12 10:03:50;;;;;;;7.05;2.95;;;;;;;27.10;37.34;101443.38;5017924;28;20100;-76
2021/08/12 10:06:22;;;;;;;5.57;3.00;;;;;;;27.32;36.63;101440.88;5010076;28;20041;-77
2021/08/12 10:08:49;;;;;;;4.88;2.50;;;;;;;27.16;35.78;101436.44;5025202;28;20049;-77
2021/08/12 10:11:20;;;;;;;4.95;2.63;;;;;;;27.14;36.33;101436.59;4993529;28;20065;-75
2021/08/12 10:13:49;;;;;;;7.07;2.95;;;;;;;27.01;36.45;101433.63;4987305;28;20069;-76
2021/08/12 10:16:17;;;;;;;4.72;2.20;;;;;;;26.83;35.49;101435.75;5007940;28;20103;-76
2021/08/12 10:18:47;;;;;;;4.78;2.20;;;;;;;26.70;35.64;101429.09;4988548;28;20045;-76
2021/08/12 10:21:16;;;;;;;4.22;2.47;;;;;;;26.74;35.65;101430.38;5024719;28;20056;-77
2021/08/12 10:23:49;;;;;;;8.50;3.08;;;;;;;26.95;36.57;101442.44;5003684;28;20041;-76
2021/08/12 10:26:18;;;;;;;3.60;2.58;;;;;;;27.17;35.69;101438.13;5026314;28;20129;-76
2021/08/12 10:28:48;;;;;;;4.72;2.38;;;;;;;27.10;35.48;101442.56;5019813;28;20048;-77
2021/08/12 10:31:20;;;;;;;3.90;2.75;;;;;;;26.60;35.72;101433.00;5014642;28;20523;-77
2021/08/12 10:33:49;;;;;;;5.45;2.67;;;;;;;26.51;35.75;101424.94;5020661;28;20698;-77
2021/08/12 10:36:17;;;;;;;4.82;2.75;;;;;;;26.94;36.28;101424.56;5008965;28;20128;-77
2021/08/12 10:38:45;;;;;;;3.22;2.00;;;;;;;27.17;35.33;101436.25;4992830;28;20076;-76
2021/08/12 10:41:15;;;;;;;5.68;2.58;;;;;;;27.16;35.51;101428.34;5026363;28;20535;-77
2021/08/12 10:43:44;;;;;;;4.15;2.53;;;;;;;27.46;34.15;101429.28;5008034;28;20140;-77
2021/08/12 10:46:11;;;;;;;7.90;2.47;;;;;;;27.62;33.54;101417.50;5007439;28;20056;-78
2021/08/12 10:48:38;;;;;;;5.38;2.40;;;;;;;27.49;33.46;101415.41;5024071;28;20141;-77
2021/08/12 10:51:12;;;;;;;4.25;2.72;;;;;;;27.63;34.75;101424.56;5027110;28;20121;-76
2021/08/12 10:54:14;;;;;;;5.95;2.13;;;;;;;27.58;33.42;101410.75;5023795;28;20068;-76
2021/08/12 10:56:43;;;;;;;4.45;2.28;;;;;;;27.23;33.24;101408.50;4990896;28;20111;-75
2021/08/12 10:59:10;;;;;;;4.80;2.10;;;;;;;26.71;34.26;101406.47;5025759;28;20050;-77
2021/08/12 11:01:39;;;;;;;4.80;2.63;;;;;;;26.82;33.85;101401.66;5012770;28;21072;-76
2021/08/12 11:04:07;;;;;;;5.63;1.90;;;;;;;27.17;34.18;101411.94;5015283;28;20168;-77
2021/08/12 11:06:35;;;;;;;21.67;6.93;;;;;;;27.27;33.95;101403.56;5028867;28;20045;-77
2021/08/12 11:09:04;;;;;;;5.68;2.25;;;;;;;27.49;33.29;101399.19;5023797;28;20044;-76
2021/08/12 11:11:31;;;;;;;2.30;1.80;;;;;;;27.14;33.62;101408.75;5013237;28;20045;-75
2021/08/12 11:14:02;;;;;;;7.80;2.70;;;;;;;27.12;32.91;101394.59;5016293;28;20140;-77
2021/08/12 11:16:42;;;;;;;3.33;1.70;;;;;;;27.04;32.74;101390.03;5014048;28;20136;-77
2021/08/12 11:19:22;;;;;;;2.72;2.10;;;;;;;27.01;32.99;101390.38;5012558;28;20091;-78